world map with CAC marked

CAC - Airport

This information may not be accurate or current and is not valid for navigation or flight planning. No warranty of fitness for any purpose is made or implied.

flag of Paranáflag of Brazil

Donate via PayPal

Additional information is available on the NEW Great Circle Mapper

Location
City:  Cascavel, Paraná, Brazil
ICAO / IATA:SBCA / CAC

Details
Type:Airport (Aerodrome, Airfield)
Latitude:25°00'01"S (-25.000338)
Longitude:53°30'03"W (-53.500763)
Datum:WGS 1984
Elevation:2473 ft (754 m)
Runways:1
Longest:5299 × 98 ft (1615 × 30 m)

Time
Timezone:UTC+31:08 (DST+34:08)
Local Time:

Weather
METAR:SBCA  041400Z 05015KT 9999 FEW015 BKN020 24/19 Q1019

Related Locations
Nearby:
Farthest:MMY: 12369 mi / 19906 km
Miyakojima [Miyako Airport], Miyakojima Island, 47, JP

Find:

   beyond  
but within

Other Information
Maps:
Sources:

  


 


Great Circle Mapper   Great Circle Mapper
Great Circle Mapper FAQ   Great Circle Mapper FAQ
  Karl's Home Page
KLS˛   KLS˛ Home
   GC on Facebook
Airlines of the World   Airlines of the World
Donate via PayPal


Copyright © 2004-2019, Karl L. Swartz. All rights reserved.
All trademarks mentioned herein belong to their respective owners.

Please see credits for attribution and copyright information.

Karl Swartz <karl@kls2.com>
  Powered by FreeBSD
Valid HTML 4.01!
Labeled with ICRA
hCard Microformat
Geo Microformat